Time;durP1;ratioP1;P1;durP2;ratioP2;P2;SDS_P1;SDS_P2;PMS_P1;PMS_P2;Temp;Humidity;BMP_temperature;BMP_pressure;BME280_temperature;BME280_humidity;BME280_pressure;Samples;Min_cycle;Max_cycle;Signal;HPM_P1;HPM_P2
2023/11/02 00:02:02;;;;;;;2.83;1.08;;;;;;;9.72;100.00;99096.72;5070208;28;20025;-35
2023/11/02 00:04:28;;;;;;;4.05;1.50;;;;;;;9.72;100.00;99094.00;5070033;28;20067;-35
2023/11/02 00:06:55;;;;;;;4.73;1.47;;;;;;;9.69;100.00;99071.06;5069827;28;20426;-35
2023/11/02 00:09:27;;;;;;;4.38;1.63;;;;;;;9.75;100.00;99071.88;5057342;28;20263;-35
2023/11/02 00:12:02;;;;;;;6.95;1.52;;;;;;;9.76;100.00;99057.28;5056519;28;20362;-35
2023/11/02 00:14:34;;;;;;;6.18;1.38;;;;;;;9.74;100.00;99045.97;5057009;28;20052;-35
2023/11/02 00:16:59;;;;;;;4.72;1.38;;;;;;;9.72;100.00;99032.75;5056460;28;20032;-35
2023/11/02 00:19:30;;;;;;;;;;;;;;;9.77;100.00;99029.22;5056523;28;20033;-35
2023/11/02 00:22:06;;;;;;;3.88;1.00;;;;;;;9.74;100.00;99021.66;5056639;28;20250;-35
2023/11/02 00:24:32;;;;;;;5.40;1.38;;;;;;;9.73;100.00;99023.56;5056606;28;20078;-35
2023/11/02 00:26:57;;;;;;;3.97;1.27;;;;;;;9.66;100.00;98998.75;5056057;28;20033;-35
2023/11/02 00:29:22;;;;;;;2.80;0.93;;;;;;;9.72;100.00;99004.94;5055799;28;20078;-35
2023/11/02 00:31:48;;;;;;;5.47;1.20;;;;;;;9.63;100.00;98991.16;5055654;28;20028;-35
2023/11/02 00:34:14;;;;;;;3.43;1.17;;;;;;;9.72;100.00;98996.84;5055882;28;20029;-35
2023/11/02 00:36:40;;;;;;;3.65;1.10;;;;;;;9.71;100.00;98977.16;5055437;28;20491;-35
2023/11/02 00:39:05;;;;;;;4.97;1.00;;;;;;;9.72;100.00;98973.34;5056002;28;20029;-35
2023/11/02 00:41:30;;;;;;;3.17;1.20;;;;;;;9.70;100.00;98958.50;5056082;28;20048;-35
2023/11/02 00:43:56;;;;;;;4.35;1.05;;;;;;;9.78;100.00;98960.66;5055668;28;20325;-35
2023/11/02 00:46:21;;;;;;;4.50;1.23;;;;;;;9.76;100.00;98952.84;5055723;28;20055;-35
2023/11/02 00:48:47;;;;;;;3.23;1.40;;;;;;;9.80;100.00;98950.38;5055562;28;20307;-35
2023/11/02 00:51:23;;;;;;;3.40;1.02;;;;;;;9.79;100.00;98941.50;5055821;28;20107;-35
2023/11/02 00:53:58;;;;;;;5.38;1.05;;;;;;;9.79;100.00;98936.09;5055486;28;20025;-35
2023/11/02 00:56:34;;;;;;;7.47;1.00;;;;;;;9.82;100.00;98928.53;5055714;28;20484;-35
2023/11/02 00:59:00;;;;;;;3.08;0.90;;;;;;;9.82;100.00;98923.94;5055391;28;20155;-35
2023/11/02 01:01:27;;;;;;;3.22;1.23;;;;;;;9.85;100.00;98918.00;5055332;28;20025;-35
2023/11/02 01:04:00;;;;;;;5.47;0.98;;;;;;;9.82;100.00;98905.06;5054282;28;20025;-35
2023/11/02 01:06:33;;;;;;;3.67;0.95;;;;;;;9.80;100.00;98902.59;5055247;28;20025;-35
2023/11/02 01:09:44;;;;;;;4.30;1.15;;;;;;;9.83;100.00;98885.06;5055424;28;20028;-35
2023/11/02 01:12:10;;;;;;;3.55;1.00;;;;;;;9.83;100.00;98874.28;5053641;28;20044;-35
2023/11/02 01:14:37;;;;;;;3.50;0.95;;;;;;;9.85;100.00;98865.88;5055652;28;20033;-35
2023/11/02 01:17:03;;;;;;;4.03;1.08;;;;;;;9.85;100.00;98852.41;5055748;28;20123;-35
2023/11/02 01:19:37;;;;;;;2.53;0.80;;;;;;;9.84;100.00;98862.38;5054799;28;20367;-35
2023/11/02 01:22:03;;;;;;;3.33;0.88;;;;;;;9.83;100.00;98849.97;5055200;28;20044;-35
2023/11/02 01:24:33;;;;;;;1.70;0.90;;;;;;;9.86;100.00;98844.03;5054698;28;20485;-35
2023/11/02 01:27:00;;;;;;;4.78;1.30;;;;;;;9.88;100.00;98841.06;5055166;28;20048;-35
2023/11/02 01:29:28;;;;;;;4.80;0.88;;;;;;;9.88;100.00;98847.25;5055314;28;20449;-35
2023/11/02 01:31:54;;;;;;;3.00;0.98;;;;;;;9.89;100.00;98840.78;5054984;28;20482;-34
2023/11/02 01:34:20;;;;;;;3.60;1.02;;;;;;;9.89;100.00;98821.06;5054724;28;20025;-35
2023/11/02 01:36:46;;;;;;;;;;;;;;;9.93;100.00;98814.84;5054986;28;20523;-35
2023/11/02 01:39:15;;;;;;;6.10;0.90;;;;;;;9.91;100.00;98798.13;5054640;28;19917;-35
2023/11/02 01:41:52;;;;;;;2.65;0.90;;;;;;;9.93;100.00;98789.75;5055397;28;20064;-35
2023/11/02 01:44:37;;;;;;;4.10;1.10;;;;;;;9.89;100.00;98772.47;5055310;28;20112;-34
2023/11/02 01:47:38;;;;;;;2.85;0.80;;;;;;;9.98;100.00;98765.41;5055001;28;20043;-35
2023/11/02 01:50:22;;;;;;;3.72;0.85;;;;;;;9.91;100.00;98740.63;5054386;28;20021;-34
2023/11/02 01:53:13;;;;;;;3.88;0.77;;;;;;;9.98;100.00;98714.13;5055181;28;20032;-35
2023/11/02 01:56:11;;;;;;;4.75;0.90;;;;;;;9.94;100.00;98700.34;5054597;28;20112;-35
2023/11/02 01:59:03;;;;;;;3.13;0.95;;;;;;;10.01;100.00;98695.47;5054565;28;20037;-35
2023/11/02 02:01:34;;;;;;;2.08;0.60;;;;;;;9.99;100.00;98670.63;5054474;28;20037;-35
2023/11/02 02:04:21;;;;;;;2.88;1.20;;;;;;;10.02;100.00;98643.06;5054487;28;20083;-35
2023/11/02 02:06:56;;;;;;;3.00;0.98;;;;;;;10.01;100.00;98636.06;5054690;28;20029;-35
2023/11/02 02:09:53;;;;;;;3.47;0.88;;;;;;;10.04;100.00;98618.50;5054027;28;20116;-35
2023/11/02 02:12:49;;;;;;;3.50;1.17;;;;;;;10.04;100.00;98596.88;5054623;28;20140;-35
2023/11/02 02:15:20;;;;;;;4.35;0.85;;;;;;;10.04;100.00;98567.97;5054187;28;20112;-35
2023/11/02 02:18:09;;;;;;;3.95;0.93;;;;;;;10.06;100.00;98565.81;5053880;28;20358;-35
2023/11/02 02:20:37;;;;;;;2.72;1.05;;;;;;;10.07;100.00;98540.44;5054156;28;20059;-35
2023/11/02 02:23:34;;;;;;;4.43;1.08;;;;;;;10.07;100.00;98528.81;5053516;28;20061;-35
2023/11/02 02:26:18;;;;;;;;;;;;;;;10.13;100.00;98529.56;5053294;28;20037;-35
2023/11/02 02:29:16;;;;;;;3.50;1.10;;;;;;;10.09;100.00;98515.84;5054561;28;19915;-35
2023/11/02 02:32:18;;;;;;;4.75;0.77;;;;;;;10.09;100.00;98501.53;5053596;28;20037;-35
2023/11/02 02:34:54;;;;;;;5.38;1.55;;;;;;;10.06;100.00;98492.91;5053700;28;20021;-35
2023/11/02 02:37:30;;;;;;;3.67;1.05;;;;;;;9.99;100.00;98454.63;5053319;28;20024;-35
2023/11/02 02:40:03;;;;;;;;;;;;;;;10.09;100.00;98452.91;5053733;28;20025;-35
2023/11/02 02:42:31;;;;;;;3.08;1.00;;;;;;;10.06;100.00;98444.31;5053684;28;20275;-34
2023/11/02 02:44:59;;;;;;;4.50;1.00;;;;;;;9.99;100.00;98426.81;5052311;28;20096;-35
2023/11/02 02:47:27;;;;;;;4.28;1.00;;;;;;;10.05;100.00;98434.59;5053519;28;20121;-35
2023/11/02 02:49:56;;;;;;;3.50;1.00;;;;;;;10.05;100.00;98426.50;5053443;28;20029;-35
2023/11/02 02:52:24;;;;;;;2.38;0.90;;;;;;;9.91;100.00;98393.19;5053149;28;20028;-35
2023/11/02 02:54:53;;;;;;;3.95;1.08;;;;;;;10.06;100.00;98395.72;5053113;28;20032;-35
2023/11/02 02:57:19;;;;;;;5.97;1.38;;;;;;;10.07;100.00;98378.41;5053863;28;20045;-35
2023/11/02 02:59:53;;;;;;;5.85;1.45;;;;;;;10.10;100.00;98365.41;5053686;28;20029;-35
2023/11/02 03:02:24;;;;;;;5.47;1.33;;;;;;;10.11;100.00;98334.66;5052955;28;20381;-35
2023/11/02 03:04:51;;;;;;;5.68;1.15;;;;;;;10.12;100.00;98320.84;5053640;28;20377;-35
2023/11/02 03:07:17;;;;;;;5.03;1.20;;;;;;;10.05;100.00;98296.06;5053091;28;20029;-35
2023/11/02 03:09:45;;;;;;;7.63;1.58;;;;;;;10.07;100.00;98250.69;5053768;28;20538;-35
2023/11/02 03:12:16;;;;;;;4.47;1.25;;;;;;;10.15;100.00;98260.03;5053260;28;20045;-35
2023/11/02 03:14:43;;;;;;;7.22;1.40;;;;;;;10.16;100.00;98294.06;5053238;28;20537;-35
2023/11/02 03:17:19;;;;;;;6.80;1.70;;;;;;;10.20;100.00;98285.09;5053976;28;20373;-35
2023/11/02 03:19:49;;;;;;;3.65;1.15;;;;;;;10.22;100.00;98255.91;5053196;28;20029;-35
2023/11/02 03:22:17;;;;;;;4.55;1.10;;;;;;;10.22;100.00;98217.28;5053749;28;20024;-35
2023/11/02 03:24:50;;;;;;;5.65;1.13;;;;;;;10.20;100.00;98206.78;5052774;28;20099;-35
2023/11/02 03:27:27;;;;;;;5.15;1.55;;;;;;;10.15;100.00;98200.63;5053460;28;20036;-35
2023/11/02 03:30:06;;;;;;;11.38;1.70;;;;;;;10.18;100.00;98262.16;5053077;28;20041;-35
2023/11/02 03:33:15;;;;;;;4.90;1.02;;;;;;;10.25;100.00;98273.47;5053349;28;20025;-35
2023/11/02 03:36:04;;;;;;;4.00;1.00;;;;;;;10.26;100.00;98310.97;5053535;28;20082;-35
2023/11/02 03:38:43;;;;;;;3.90;1.27;;;;;;;10.24;100.00;98293.44;5053585;28;20057;-35
2023/11/02 03:41:35;;;;;;;3.83;1.17;;;;;;;10.31;100.00;98269.59;5053582;28;20025;-35
2023/11/02 03:44:11;;;;;;;3.65;0.95;;;;;;;10.32;100.00;98257.69;5054686;28;20037;-35
2023/11/02 03:46:45;;;;;;;5.32;1.10;;;;;;;10.35;100.00;98235.50;5056551;28;20465;-35
2023/11/02 03:49:10;;;;;;;3.40;0.98;;;;;;;10.37;100.00;98184.66;5057274;28;20033;-35
2023/11/02 03:51:48;;;;;;;4.07;1.00;;;;;;;10.37;100.00;98179.25;5056715;28;20035;-35
2023/11/02 03:54:42;;;;;;;4.72;1.10;;;;;;;10.38;100.00;98178.16;5056604;28;20132;-35
2023/11/02 03:57:19;;;;;;;5.15;1.42;;;;;;;10.33;100.00;98140.44;5057383;28;20454;-35
2023/11/02 04:00:20;;;;;;;4.72;1.80;;;;;;;10.39;100.00;98117.63;5057319;28;20079;-35
2023/11/02 04:02:53;;;;;;;2.72;0.98;;;;;;;10.37;100.00;98082.03;5055541;28;20025;-35
2023/11/02 04:05:24;;;;;;;4.68;1.15;;;;;;;10.32;100.00;98030.78;5056687;28;20036;-35
2023/11/02 04:08:11;;;;;;;4.60;1.20;;;;;;;10.36;100.00;97999.38;5056330;28;20032;-35
2023/11/02 04:10:40;;;;;;;;;;;;;;;10.40;100.00;98010.41;5056748;28;20029;-35
2023/11/02 04:13:13;;;;;;;5.68;1.58;;;;;;;10.36;100.00;98033.69;5055894;28;20382;-35
2023/11/02 04:15:39;;;;;;;3.90;1.02;;;;;;;10.34;100.00;98038.59;5056516;28;20025;-35
2023/11/02 04:18:04;;;;;;;4.85;1.80;;;;;;;10.31;100.00;98031.91;5056025;28;20028;-35
2023/11/02 04:20:30;;;;;;;4.33;0.90;;;;;;;10.31;100.00;98048.91;5056439;28;20108;-35
2023/11/02 04:22:55;;;;;;;3.72;1.10;;;;;;;10.31;100.00;98056.19;5056350;28;20263;-35
2023/11/02 04:25:21;;;;;;;4.32;1.10;;;;;;;10.29;100.00;98048.38;5055814;28;20473;-35
2023/11/02 04:27:46;;;;;;;5.82;1.30;;;;;;;10.32;100.00;98019.97;5056018;28;20029;-35
2023/11/02 04:30:13;;;;;;;3.50;1.07;;;;;;;10.32;100.00;98007.28;5056293;28;20037;-35
2023/11/02 04:32:39;;;;;;;4.00;1.23;;;;;;;10.33;100.00;97989.16;5055565;28;20032;-35
2023/11/02 04:35:05;;;;;;;6.50;1.10;;;;;;;10.32;100.00;97977.56;5056199;28;20025;-35
2023/11/02 04:37:30;;;;;;;4.18;0.93;;;;;;;10.31;100.00;97970.56;5055749;28;20111;-35
2023/11/02 04:39:55;;;;;;;3.47;1.08;;;;;;;10.34;100.00;97955.66;5055836;28;20112;-35
2023/11/02 04:42:22;;;;;;;5.10;1.10;;;;;;;10.35;100.00;97926.75;5055575;28;20025;-35
2023/11/02 04:44:48;;;;;;;4.35;1.25;;;;;;;10.35;100.00;97919.47;5055616;28;20025;-35
2023/11/02 04:47:14;;;;;;;2.08;0.88;;;;;;;10.34;100.00;97901.63;5055710;28;20379;-35
2023/11/02 04:49:39;;;;;;;3.35;1.00;;;;;;;10.29;100.00;97893.63;5055573;28;20112;-35
2023/11/02 04:52:06;;;;;;;2.80;0.98;;;;;;;10.34;100.00;97919.75;5055618;28;20041;-34
2023/11/02 04:54:32;;;;;;;3.10;0.80;;;;;;;10.36;100.00;97920.25;5055353;28;20565;-35
2023/11/02 04:56:59;;;;;;;3.10;0.70;;;;;;;10.37;100.00;97895.63;5056064;28;20053;-35
2023/11/02 04:59:25;;;;;;;2.55;0.63;;;;;;;10.35;100.00;97888.94;5055695;28;20040;-35
2023/11/02 05:01:51;;;;;;;2.67;0.60;;;;;;;10.28;100.00;97873.13;5055471;28;20454;-35
2023/11/02 05:04:16;;;;;;;2.70;0.90;;;;;;;10.34;100.00;97868.41;5055324;28;20385;-35
2023/11/02 05:06:42;;;;;;;2.88;0.98;;;;;;;10.42;100.00;97849.59;5055367;28;20037;-35
2023/11/02 05:09:08;;;;;;;;;;;;;;;10.46;100.00;97850.59;5055920;28;20033;-35
2023/11/02 05:11:34;;;;;;;3.03;0.80;;;;;;;10.43;100.00;97853.91;5054930;28;19922;-35
2023/11/02 05:13:59;;;;;;;3.55;1.00;;;;;;;10.43;100.00;97853.91;5055120;28;20028;-35
2023/11/02 05:16:25;;;;;;;3.50;0.70;;;;;;;10.45;100.00;97867.91;5055852;28;20060;-35
2023/11/02 05:18:50;;;;;;;2.53;0.57;;;;;;;10.48;100.00;97848.38;5054730;28;20636;-35
2023/11/02 05:21:16;;;;;;;2.80;1.20;;;;;;;10.44;100.00;97828.50;5055333;28;20028;-35
2023/11/02 05:23:41;;;;;;;1.67;0.57;;;;;;;10.53;100.00;97840.16;5055159;28;20488;-35
2023/11/02 05:26:06;;;;;;;2.03;0.60;;;;;;;10.47;100.00;97800.88;5055734;28;20033;-34
2023/11/02 05:28:32;;;;;;;2.00;0.53;;;;;;;10.55;100.00;97824.47;5054814;28;20123;-35
2023/11/02 05:30:58;;;;;;;2.80;0.90;;;;;;;10.55;100.00;97813.66;5055328;28;20025;-35
2023/11/02 05:33:23;;;;;;;4.65;0.70;;;;;;;10.56;100.00;97820.66;5054421;28;20032;-35
2023/11/02 05:35:52;;;;;;;2.97;0.98;;;;;;;10.55;100.00;97808.25;5055015;28;20025;-35
2023/11/02 05:38:21;;;;;;;2.90;1.02;;;;;;;10.58;100.00;97804.13;5054510;28;20020;-35
2023/11/02 05:40:46;;;;;;;6.28;1.55;;;;;;;10.58;100.00;97802.22;5054624;28;20469;-35
2023/11/02 05:43:12;;;;;;;1.60;0.70;;;;;;;10.43;100.00;97772.84;5054327;28;20043;-35
2023/11/02 05:45:37;;;;;;;3.53;0.60;;;;;;;10.56;100.00;97773.94;5054763;28;20032;-35
2023/11/02 05:48:03;;;;;;;1.58;0.90;;;;;;;10.55;100.00;97770.44;5054465;28;20040;-35
2023/11/02 05:50:28;;;;;;;2.85;0.80;;;;;;;10.48;100.00;97770.03;5054724;28;20518;-35
2023/11/02 05:52:54;;;;;;;1.67;0.47;;;;;;;10.46;100.00;97771.47;5054189;28;20362;-35
2023/11/02 05:55:20;;;;;;;1.95;0.65;;;;;;;10.38;100.00;97759.47;5054005;28;20389;-35
2023/11/02 05:57:46;;;;;;;;;;;;;;;10.40;100.00;97757.28;5054388;28;20148;-35
2023/11/02 06:00:11;;;;;;;3.60;0.80;;;;;;;10.30;100.00;97744.00;5054820;28;19913;-35
2023/11/02 06:02:38;;;;;;;1.60;0.68;;;;;;;10.23;100.00;97746.28;5054414;28;20021;-35
2023/11/02 06:05:05;;;;;;;2.13;0.63;;;;;;;10.18;100.00;97738.28;5054686;28;20099;-35
2023/11/02 06:07:31;;;;;;;1.73;0.50;;;;;;;10.14;100.00;97742.69;5053474;28;20471;-35
2023/11/02 06:09:57;;;;;;;2.90;0.75;;;;;;;10.14;100.00;97742.69;5054112;28;20067;-35
2023/11/02 06:12:23;;;;;;;2.08;0.80;;;;;;;10.11;100.00;97735.22;5053792;28;20060;-35
2023/11/02 06:14:49;;;;;;;1.80;0.60;;;;;;;10.09;100.00;97737.41;5054238;28;20025;-35
2023/11/02 06:17:14;;;;;;;;;;;;;;;10.15;100.00;97733.47;5054317;28;20032;-35
2023/11/02 06:19:40;;;;;;;3.30;0.70;;;;;;;10.06;100.00;97730.72;5054770;28;19912;-35
2023/11/02 06:22:05;;;;;;;1.67;0.65;;;;;;;10.04;100.00;97738.31;5053589;28;20103;-35
2023/11/02 06:24:30;;;;;;;3.17;0.50;;;;;;;9.95;100.00;97722.03;5053855;28;20028;-35
2023/11/02 06:26:55;;;;;;;1.93;0.67;;;;;;;9.97;100.00;97727.94;5053614;28;20037;-35
2023/11/02 06:29:21;;;;;;;3.10;0.83;;;;;;;9.98;100.00;97724.13;5054076;28;20090;-35
2023/11/02 06:31:46;;;;;;;2.77;0.67;;;;;;;9.96;100.00;97723.66;5053856;28;20039;-35
2023/11/02 06:34:11;;;;;;;2.17;1.07;;;;;;;9.97;100.00;97717.13;5054306;28;20039;-35
2023/11/02 06:36:37;;;;;;;6.07;0.80;;;;;;;9.96;100.00;97726.34;5054218;28;20029;-35
2023/11/02 06:39:02;;;;;;;2.97;0.83;;;;;;;9.95;100.00;97700.44;5053652;28;20457;-35
2023/11/02 06:41:28;;;;;;;3.90;0.65;;;;;;;9.93;100.00;97704.56;5053929;28;20259;-35
2023/11/02 06:43:53;;;;;;;2.15;0.60;;;;;;;9.94;100.00;97695.34;5053527;28;20370;-35
2023/11/02 06:46:19;;;;;;;2.17;0.63;;;;;;;9.93;100.00;97672.97;5053308;28;20378;-35
2023/11/02 06:48:44;;;;;;;1.75;0.70;;;;;;;9.91;100.00;97672.47;5053485;28;20060;-35
2023/11/02 06:51:10;;;;;;;1.93;1.00;;;;;;;9.88;100.00;97659.56;5053282;28;20565;-35
2023/11/02 06:53:36;;;;;;;;;;;;;;;9.93;100.00;97642.47;5053821;28;20333;-35
2023/11/02 06:56:01;;;;;;;2.67;0.68;;;;;;;9.89;100.00;97630.69;5053780;28;19916;-35
2023/11/02 06:58:27;;;;;;;1.05;0.60;;;;;;;9.87;100.00;97608.59;5054812;28;20079;-35
2023/11/02 07:00:52;;;;;;;3.03;0.60;;;;;;;9.88;100.00;97602.09;5053730;28;20041;-35
2023/11/02 07:03:17;;;;;;;1.80;0.80;;;;;;;9.89;100.00;97582.91;5053613;28;20029;-35
2023/11/02 07:05:43;;;;;;;3.70;0.60;;;;;;;9.90;100.00;97573.69;5053927;28;20044;-35
2023/11/02 07:08:08;;;;;;;2.92;0.75;;;;;;;9.91;100.00;97564.50;5053364;28;20733;-35
2023/11/02 07:10:34;;;;;;;3.13;1.17;;;;;;;9.90;100.00;97565.59;5053535;28;20025;-35
2023/11/02 07:12:59;;;;;;;1.47;0.50;;;;;;;9.94;100.00;97571.97;5053307;28;20155;-34
2023/11/02 07:15:25;;;;;;;1.20;0.60;;;;;;;9.97;100.00;97576.78;5053501;28;20053;-35
2023/11/02 07:17:50;;;;;;;2.38;0.70;;;;;;;10.04;100.00;97574.44;5053456;28;20114;-35
2023/11/02 07:20:16;;;;;;;2.58;0.60;;;;;;;10.11;100.00;97551.63;5057513;28;20457;-35
2023/11/02 07:22:41;;;;;;;1.00;0.40;;;;;;;10.17;100.00;97545.00;5057196;28;20473;-35
2023/11/02 07:25:07;;;;;;;2.60;0.80;;;;;;;10.24;100.00;97545.38;5057383;28;20264;-35
2023/11/02 07:27:33;;;;;;;;;;;;;;;10.31;100.00;97540.34;5057741;28;20431;-35
2023/11/02 07:29:59;;;;;;;1.80;0.60;;;;;;;10.34;100.00;97534.31;5057343;28;19916;-35
2023/11/02 07:32:25;;;;;;;2.35;0.50;;;;;;;10.37;100.00;97514.78;5057043;28;20041;-35
2023/11/02 07:34:51;;;;;;;1.55;0.43;;;;;;;10.44;100.00;97517.84;5057089;28;20033;-35
2023/11/02 07:37:16;;;;;;;1.40;0.50;;;;;;;10.47;100.00;97524.53;5057115;28;20090;-35
2023/11/02 07:39:41;;;;;;;5.20;1.02;;;;;;;10.53;100.00;97528.69;5056681;28;20377;-35
2023/11/02 07:42:07;;;;;;;1.50;0.60;;;;;;;10.59;100.00;97513.94;5057081;28;20082;-35
2023/11/02 07:44:32;;;;;;;1.07;0.53;;;;;;;10.64;100.00;97524.63;5057633;28;20039;-35
2023/11/02 07:46:57;;;;;;;1.00;0.50;;;;;;;10.67;100.00;97515.88;5057601;28;20033;-35
2023/11/02 07:49:23;;;;;;;1.65;0.57;;;;;;;10.71;100.00;97508.72;5056942;28;20358;-35
2023/11/02 07:51:48;;;;;;;1.53;0.57;;;;;;;10.78;100.00;97503.69;5056691;28;20067;-35
2023/11/02 07:54:13;;;;;;;2.33;0.60;;;;;;;10.93;100.00;97497.06;5056332;28;20033;-35
2023/11/02 07:56:39;;;;;;;2.20;0.73;;;;;;;11.09;100.00;97492.78;5056508;28;20045;-35
2023/11/02 07:59:04;;;;;;;3.55;0.70;;;;;;;11.12;100.00;97464.28;5056805;28;20267;-35
2023/11/02 08:01:30;;;;;;;2.20;0.97;;;;;;;11.39;100.00;97486.78;5056225;28;20021;-35
2023/11/02 08:03:56;;;;;;;3.13;1.10;;;;;;;11.50;100.00;97475.31;5056134;28;20108;-35
2023/11/02 08:06:23;;;;;;;3.33;0.77;;;;;;;11.51;100.00;97459.84;5056403;28;20024;-35
2023/11/02 08:08:48;;;;;;;3.20;0.90;;;;;;;11.67;100.00;97479.13;5056628;28;20354;-35
2023/11/02 08:11:14;;;;;;;3.53;0.93;;;;;;;11.72;100.00;97466.22;5056952;28;20044;-35
2023/11/02 08:13:39;;;;;;;3.88;0.95;;;;;;;11.78;100.00;97472.25;5056038;28;20100;-35
2023/11/02 08:16:05;;;;;;;3.73;0.90;;;;;;;11.69;100.00;97447.13;5056530;28;20454;-35
2023/11/02 08:18:31;;;;;;;5.00;1.15;;;;;;;11.86;100.00;97466.09;5056450;28;20025;-35
2023/11/02 08:20:56;;;;;;;4.45;1.35;;;;;;;11.96;100.00;97457.63;5056664;28;20102;-35
2023/11/02 08:23:22;;;;;;;3.53;1.05;;;;;;;12.03;100.00;97457.91;5055826;28;20033;-35
2023/11/02 08:25:47;;;;;;;4.90;1.10;;;;;;;12.06;100.00;97454.56;5055813;28;20032;-35
2023/11/02 08:28:15;;;;;;;6.82;1.48;;;;;;;12.11;100.00;97448.19;5055915;28;20033;-35
2023/11/02 08:30:40;;;;;;;6.25;1.20;;;;;;;12.09;100.00;97442.28;5055504;28;20025;-35
2023/11/02 08:33:08;;;;;;;4.93;1.07;;;;;;;12.13;100.00;97453.25;5056223;28;20025;-35
2023/11/02 08:35:34;;;;;;;3.65;1.20;;;;;;;12.21;100.00;97438.91;5056670;28;20264;-35
2023/11/02 08:37:59;;;;;;;4.38;0.88;;;;;;;12.18;100.00;97428.72;5055733;28;20449;-35
2023/11/02 08:40:25;;;;;;;2.90;0.90;;;;;;;12.26;100.00;97441.44;5056077;28;20477;-35
2023/11/02 08:42:50;;;;;;;6.73;1.47;;;;;;;12.25;100.00;97443.34;5056030;28;20792;-35
2023/11/02 08:45:17;;;;;;;5.77;1.27;;;;;;;12.28;100.00;97439.19;5056267;28;20355;-35
2023/11/02 08:47:43;;;;;;;4.47;0.90;;;;;;;12.32;100.00;97448.25;5055483;28;20678;-35
2023/11/02 08:50:10;;;;;;;5.40;1.55;;;;;;;12.30;100.00;97426.13;5055328;28;20054;-35
2023/11/02 08:52:35;;;;;;;3.42;0.98;;;;;;;12.25;100.00;97423.56;5055520;28;20111;-35
2023/11/02 08:55:03;;;;;;;3.97;0.93;;;;;;;12.32;100.00;97424.66;5055853;28;20068;-35
2023/11/02 08:57:29;;;;;;;3.05;1.00;;;;;;;12.33;100.00;97423.53;5055603;28;20170;-35
2023/11/02 08:59:55;;;;;;;5.95;1.17;;;;;;;12.37;100.00;97437.25;5055448;28;20032;-35
2023/11/02 09:02:20;;;;;;;3.30;1.10;;;;;;;12.35;100.00;97423.25;5055648;28;20033;-35
2023/11/02 09:04:45;;;;;;;6.30;1.20;;;;;;;12.38;100.00;97422.56;5055677;28;20063;-35
2023/11/02 09:07:11;;;;;;;4.50;1.00;;;;;;;12.44;100.00;97405.00;5055387;28;20507;-35
2023/11/02 09:09:36;;;;;;;5.87;1.23;;;;;;;12.50;100.00;97392.88;5055845;28;20612;-35
2023/11/02 09:12:02;;;;;;;4.25;1.13;;;;;;;12.58;100.00;97394.72;5056047;28;20025;-35
2023/11/02 09:14:30;;;;;;;5.85;1.00;;;;;;;12.67;100.00;97402.81;5055158;28;20104;-35
2023/11/02 09:16:57;;;;;;;2.95;1.08;;;;;;;12.84;100.00;97401.94;5055008;28;20111;-35
2023/11/02 09:19:22;;;;;;;3.00;1.38;;;;;;;13.02;100.00;97397.94;5055831;28;20154;-35
2023/11/02 09:21:48;;;;;;;6.70;2.30;;;;;;;13.10;100.00;97374.59;5055585;28;20024;-35
2023/11/02 09:24:14;;;;;;;6.53;1.38;;;;;;;13.33;100.00;97383.22;5055432;28;20060;-35
2023/11/02 09:26:41;;;;;;;4.40;1.17;;;;;;;13.33;100.00;97366.94;5055484;28;20064;-35
2023/11/02 09:29:06;;;;;;;7.07;1.10;;;;;;;13.32;100.00;97373.47;5054561;28;20440;-35
2023/11/02 09:31:31;;;;;;;5.28;1.52;;;;;;;13.46;100.00;97360.41;5055088;28;20032;-35
2023/11/02 09:33:57;;;;;;;3.90;1.20;;;;;;;13.50;100.00;97341.56;5055623;28;20353;-35
2023/11/02 09:36:23;;;;;;;;;;;;;;;13.69;100.00;97373.63;5055110;28;20259;-35
2023/11/02 09:38:48;;;;;;;4.50;1.30;;;;;;;13.81;100.00;97357.34;5055208;28;19917;-35
2023/11/02 09:41:14;;;;;;;5.28;1.20;;;;;;;13.91;100.00;97354.22;5053781;28;20128;-35
2023/11/02 09:43:41;;;;;;;6.35;1.40;;;;;;;13.91;100.00;97348.78;5054302;28;20033;-35
2023/11/02 09:46:07;;;;;;;4.18;1.15;;;;;;;13.99;100.00;97361.44;5054532;28;20493;-35
2023/11/02 09:48:32;;;;;;;4.65;1.05;;;;;;;14.02;100.00;97382.50;5054142;28;20064;-35
2023/11/02 09:50:59;;;;;;;6.07;1.23;;;;;;;14.06;100.00;97369.06;5055326;28;20094;-35
2023/11/02 09:53:26;;;;;;;5.90;1.88;;;;;;;14.05;100.00;97360.09;5054075;28;20542;-35
2023/11/02 09:55:52;;;;;;;5.20;1.40;;;;;;;14.10;100.00;97375.38;5054664;28;20028;-35
2023/11/02 09:58:19;;;;;;;5.43;1.23;;;;;;;14.14;100.00;97371.66;5054608;28;20433;-35
2023/11/02 10:00:46;;;;;;;6.32;1.23;;;;;;;14.20;100.00;97376.84;5053969;28;20025;-35
2023/11/02 10:03:12;;;;;;;4.05;1.00;;;;;;;14.25;100.00;97354.91;5054250;28;20031;-35
2023/11/02 10:05:37;;;;;;;4.18;1.17;;;;;;;14.28;99.68;97352.28;5054161;28;20420;-35
2023/11/02 10:08:02;;;;;;;7.35;1.70;;;;;;;14.25;97.96;97352.19;5054640;28;20033;-35
2023/11/02 10:10:33;;;;;;;6.22;1.30;;;;;;;14.17;99.20;97337.59;5054110;28;20064;-35
2023/11/02 10:13:02;;;;;;;5.05;1.33;;;;;;;14.10;99.98;97330.00;5054100;28;20453;-35
2023/11/02 10:15:29;;;;;;;4.60;1.20;;;;;;;14.14;100.00;97333.59;5054324;28;20024;-35
2023/11/02 10:17:55;;;;;;;5.22;1.52;;;;;;;14.23;100.00;97349.81;5053866;28;20116;-35
2023/11/02 10:20:20;;;;;;;4.47;1.40;;;;;;;14.20;99.92;97326.06;5053994;28;20061;-35
2023/11/02 10:23:05;;;;;;;6.65;1.40;;;;;;;14.11;97.14;97350.59;5053842;28;20150;-35
2023/11/02 10:25:31;;;;;;;4.13;1.20;;;;;;;13.95;98.99;97357.81;5053575;28;20106;-35
2023/11/02 10:27:57;;;;;;;10.35;1.27;;;;;;;14.03;96.77;97348.78;5053819;28;20108;-35
2023/11/02 10:30:23;;;;;;;;;;;;;;;14.02;97.79;97336.34;5054969;28;20049;-35
2023/11/02 10:32:48;;;;;;;5.90;1.30;;;;;;;13.86;98.52;97344.34;5053871;28;20382;-35
2023/11/02 10:35:15;;;;;;;6.93;1.40;;;;;;;13.89;99.08;97348.31;5053779;28;20057;-35
2023/11/02 10:37:41;;;;;;;6.03;1.30;;;;;;;13.99;99.90;97347.88;5053582;28;20369;-35
2023/11/02 10:40:07;;;;;;;6.50;1.50;;;;;;;14.02;98.44;97336.34;5053624;28;20517;-35
2023/11/02 10:42:32;;;;;;;8.30;1.30;;;;;;;13.93;95.38;97332.94;5053821;28;20112;-35
2023/11/02 10:44:59;;;;;;;4.85;1.35;;;;;;;14.01;98.77;97332.03;5053303;28;20041;-35
2023/11/02 10:47:30;;;;;;;4.80;1.15;;;;;;;14.15;98.09;97318.09;5053722;28;20053;-35
2023/11/02 10:49:57;;;;;;;8.13;1.58;;;;;;;14.22;95.51;97325.69;5054277;28;20025;-35
2023/11/02 10:52:27;;;;;;;7.70;1.75;;;;;;;14.23;95.68;97322.63;5053597;28;20120;-35
2023/11/02 10:55:20;;;;;;;7.18;1.58;;;;;;;14.27;96.81;97290.94;5054270;28;20037;-35
2023/11/02 10:57:48;;;;;;;5.63;1.38;;;;;;;14.36;96.21;97307.13;5054245;28;20076;-35
2023/11/02 11:00:15;;;;;;;6.35;1.75;;;;;;;14.38;93.47;97321.94;5053696;28;20048;-35
2023/11/02 11:02:44;;;;;;;5.05;1.50;;;;;;;14.19;94.01;97310.84;5068929;28;20101;-35
2023/11/02 11:05:10;;;;;;;8.55;1.90;;;;;;;14.24;95.86;97318.78;5053068;28;20037;-35
2023/11/02 11:07:37;;;;;;;;;;;;;;;14.33;93.43;97296.91;5053686;28;20032;-35
2023/11/02 11:10:03;;;;;;;7.27;1.53;;;;;;;14.39;93.65;97296.34;5053597;28;19917;-35
2023/11/02 11:12:29;;;;;;;;;;;;;;;14.38;92.51;97305.63;5053351;28;20275;-36
2023/11/02 11:14:57;;;;;;;8.50;1.77;;;;;;;14.29;90.49;97294.09;5053270;28;19912;-35
2023/11/02 11:17:23;;;;;;;5.47;1.38;;;;;;;14.33;90.64;97302.34;5053063;28;20040;-36
2023/11/02 11:19:49;;;;;;;8.48;1.83;;;;;;;14.21;91.41;97278.72;5053515;28;20029;-36
2023/11/02 11:22:20;;;;;;;4.68;1.30;;;;;;;14.22;93.15;97272.16;5053835;28;20043;-36
2023/11/02 11:24:54;;;;;;;5.75;1.80;;;;;;;14.26;92.83;97274.97;5053466;28;20464;-35
2023/11/02 11:27:30;;;;;;;7.50;1.83;;;;;;;14.11;92.83;97285.41;5053462;28;20033;-35
2023/11/02 11:29:55;;;;;;;7.70;1.65;;;;;;;13.96;93.33;97307.81;5053420;28;20025;-35
2023/11/02 11:32:24;;;;;;;7.15;1.30;;;;;;;13.84;93.99;97314.00;5053427;28;20056;-35
2023/11/02 11:35:01;;;;;;;8.65;1.67;;;;;;;13.71;97.99;97300.75;5053533;28;20037;-35
2023/11/02 11:37:57;;;;;;;6.47;1.70;;;;;;;13.60;100.00;97303.91;5053830;28;20062;-35
2023/11/02 11:40:23;;;;;;;7.43;1.52;;;;;;;13.46;100.00;97319.72;5053535;28;20040;-36
2023/11/02 11:42:52;;;;;;;5.38;1.20;;;;;;;13.39;100.00;97268.69;5052729;28;20029;-36